createdAt,value
2022-12-29T08:36:07.595Z,99272.84
2022-12-29T08:39:10.274Z,99267.00
2022-12-29T08:54:29.151Z,99259.78
2022-12-29T08:57:31.752Z,99263.78
2022-12-29T09:00:34.373Z,99254.63
2022-12-29T09:04:12.981Z,99257.94
2022-12-29T09:06:59.423Z,99263.66
2022-12-29T09:10:03.366Z,99259.91
2022-12-29T09:13:05.930Z,99259.19
2022-12-29T09:16:09.380Z,99245.63
2022-12-29T09:19:11.925Z,99244.78
2022-12-29T09:22:14.522Z,99236.88
2022-12-29T09:25:18.588Z,99233.59
2022-12-29T09:28:21.301Z,99233.97
2022-12-29T09:31:24.158Z,99244.44
2022-12-29T09:34:26.761Z,99247.09
2022-12-29T09:37:29.659Z,99235.91
2022-12-29T09:40:35.321Z,99240.59
2022-12-29T09:44:01.153Z,99233.88
2022-12-29T09:47:03.927Z,99227.16
2022-12-29T09:50:12.846Z,99256.03
2022-12-29T09:53:21.524Z,99237.88
2022-12-29T09:56:27.316Z,99243.28
2022-12-29T09:59:41.967Z,99243.44
2022-12-29T10:02:46.381Z,99246.22
2022-12-29T10:05:55.109Z,99238.97
2022-12-29T10:09:03.838Z,99240.91
2022-12-29T10:12:23.265Z,99244.19
2022-12-29T10:15:40.481Z,99239.84
2022-12-29T10:19:08.652Z,99234.31
2022-12-29T10:22:23.171Z,99237.41
2022-12-29T10:25:32.871Z,99252.69
2022-12-29T10:28:42.308Z,99235.00
2022-12-29T10:31:48.189Z,99247.63
2022-12-29T10:34:55.892Z,99237.88
2022-12-29T10:38:03.604Z,99233.69
2022-12-29T10:41:13.752Z,99242.22
2022-12-29T10:44:20.599Z,99240.03
2022-12-29T10:47:27.640Z,99244.13
2022-12-29T10:50:31.390Z,99243.81
2022-12-29T10:53:40.879Z,99220.81
2022-12-29T10:56:46.125Z,99239.94
2022-12-29T10:59:50.010Z,99234.59
2022-12-29T11:03:14.118Z,99228.66
2022-12-29T11:06:23.985Z,99238.09
2022-12-29T11:09:42.003Z,99237.47
2022-12-29T11:12:57.129Z,99234.19
2022-12-29T11:16:01.919Z,99235.69
2022-12-29T11:19:04.963Z,99235.38
2022-12-29T11:22:15.931Z,99239.50
2022-12-29T11:25:18.605Z,99239.41
2022-12-29T11:28:21.097Z,99241.81
2022-12-29T11:31:24.940Z,99237.72
2022-12-29T11:34:31.929Z,99245.03
2022-12-29T11:37:39.972Z,99245.16
2022-12-29T11:40:42.680Z,99241.94
2022-12-29T11:43:48.550Z,99243.31
2022-12-29T11:46:53.908Z,99241.19
2022-12-29T11:50:00.601Z,99262.44
2022-12-29T11:53:06.341Z,99268.75
2022-12-29T11:56:14.398Z,99274.00
2022-12-29T11:59:38.936Z,99271.00
2022-12-29T12:02:50.059Z,99265.50
2022-12-29T12:05:57.706Z,99260.88
2022-12-29T12:09:04.651Z,99263.13
2022-12-29T12:12:10.891Z,99262.06
2022-12-29T12:15:19.880Z,99254.91
2022-12-29T12:18:34.263Z,99274.88
2022-12-29T12:21:45.370Z,99264.72
2022-12-29T12:24:53.931Z,99278.78
2022-12-29T12:28:02.052Z,99266.53
2022-12-29T12:31:13.594Z,99258.63
2022-12-29T12:34:24.442Z,99254.50
2022-12-29T12:37:44.816Z,99242.06
2022-12-29T12:41:01.490Z,99262.44
2022-12-29T12:44:14.260Z,99251.97
2022-12-29T12:47:42.278Z,99262.88
2022-12-29T12:50:55.400Z,99246.28
2022-12-29T12:54:13.655Z,99256.84
2022-12-29T12:57:24.308Z,99235.50
2022-12-29T13:00:28.886Z,99228.81
2022-12-29T13:03:47.217Z,99237.97
2022-12-29T13:06:59.048Z,99242.16
2022-12-29T13:10:31.251Z,99249.78
2022-12-29T13:13:49.756Z,99255.16
2022-12-29T13:17:01.829Z,99264.88
2022-12-29T13:20:14.517Z,99265.19
2022-12-29T13:23:26.748Z,99270.53
2022-12-29T13:26:34.641Z,99257.66
2022-12-29T13:29:45.394Z,99272.69
2022-12-29T13:32:59.002Z,99275.16
2022-12-29T13:36:05.834Z,99282.84
2022-12-29T13:39:20.633Z,99288.53
2022-12-29T13:42:25.804Z,99297.09
2022-12-29T13:45:33.326Z,99304.16
2022-12-29T13:48:41.695Z,99312.81
2022-12-29T13:51:48.643Z,99314.16
2022-12-29T13:55:03.136Z,99320.66
2022-12-29T13:58:11.409Z,99331.03
2022-12-29T14:01:21.093Z,99345.84
2022-12-29T14:04:25.513Z,99339.53
2022-12-29T14:07:29.053Z,99342.72
2022-12-29T14:10:36.384Z,99346.53
2022-12-29T14:13:41.775Z,99329.75
2022-12-29T14:16:44.715Z,99310.53
2022-12-29T14:19:47.714Z,99314.22
2022-12-29T14:22:59.906Z,99311.03
2022-12-29T14:26:16.290Z,99328.78
2022-12-29T14:29:46.364Z,99334.50
2022-12-29T14:33:04.381Z,99335.44
